Time;durP1;ratioP1;P1;durP2;ratioP2;P2;SDS_P1;SDS_P2;PMS_P1;PMS_P2;Temp;Humidity;BMP_temperature;BMP_pressure;BME280_temperature;BME280_humidity;BME280_pressure;Samples;Min_cycle;Max_cycle;Signal;HPM_P1;HPM_P2
2023/10/12 00:01:57;;;;;;;;;;;13.50;99.90;;;;;;5109123;28;20225;-73
2023/10/12 00:04:35;;;;;;;;;;;13.50;99.90;;;;;;5108992;28;19924;-75
2023/10/12 00:07:14;;;;;;;;;;;13.50;99.90;;;;;;5109896;28;19988;-74
2023/10/12 00:09:47;;;;;;;;;;;13.50;99.90;;;;;;5107201;28;19952;-74
2023/10/12 00:12:14;;;;;;;;;;;13.50;99.90;;;;;;5116128;28;19920;-74
2023/10/12 00:14:41;;;;;;;;;;;13.60;99.90;;;;;;5110503;28;19926;-74
2023/10/12 00:17:08;;;;;;;;;;;13.60;99.90;;;;;;5111591;28;19920;-73
2023/10/12 00:19:38;;;;;;;;;;;13.60;99.90;;;;;;5113477;28;20194;-74
2023/10/12 00:22:09;;;;;;;;;;;13.60;99.90;;;;;;5112327;28;19932;-73
2023/10/12 00:24:35;;;;;;;;;;;13.70;99.90;;;;;;5108467;28;19927;-74
2023/10/12 00:27:03;;;;;;;;;;;13.70;99.90;;;;;;5112719;28;19991;-74
2023/10/12 00:29:31;;;;;;;;;;;13.90;99.90;;;;;;5113084;28;19920;-73
2023/10/12 00:31:59;;;;;;;;;;;13.90;99.90;;;;;;5113164;28;20269;-73
2023/10/12 00:34:27;;;;;;;;;;;13.90;99.90;;;;;;5108755;28;19965;-74
2023/10/12 00:36:57;;;;;;;;;;;14.00;99.90;;;;;;5111356;28;19924;-74
2023/10/12 00:39:43;;;;;;;;;;;14.10;99.90;;;;;;5111430;28;19966;-74
2023/10/12 00:42:11;;;;;;;;;;;14.20;99.90;;;;;;5111534;28;19920;-74
2023/10/12 00:44:40;;;;;;;;;;;14.20;99.90;;;;;;5111107;28;19920;-73
2023/10/12 00:47:18;;;;;;;;;;;14.20;99.90;;;;;;5111812;28;19965;-73
2023/10/12 00:49:48;;;;;;;;;;;14.30;99.90;;;;;;5106482;28;19947;-73
2023/10/12 00:52:23;;;;;;;;;;;14.20;99.90;;;;;;5111229;28;19979;-73
2023/10/12 00:54:57;;;;;;;;;;;14.20;99.90;;;;;;5105965;28;20206;-73
2023/10/12 00:57:24;;;;;;;;;;;14.20;99.90;;;;;;5107541;28;19919;-72
2023/10/12 00:59:52;;;;;;;;;;;14.20;99.90;;;;;;5113232;28;19947;-73
2023/10/12 01:02:23;;;;;;;;;;;14.20;99.90;;;;;;5111939;28;19991;-73
2023/10/12 01:04:52;;;;;;;;;;;14.30;99.90;;;;;;5112646;28;19964;-73
2023/10/12 01:07:25;;;;;;;;;;;14.30;99.90;;;;;;5107917;28;20206;-72
2023/10/12 01:10:03;;;;;;;;;;;14.40;99.90;;;;;;5110052;28;19920;-72
2023/10/12 01:12:31;;;;;;;;;;;14.50;99.90;;;;;;5109786;28;19928;-72
2023/10/12 01:15:04;;;;;;;;;;;14.50;99.90;;;;;;5109259;28;19927;-73
2023/10/12 01:17:34;;;;;;;;;;;14.60;99.90;;;;;;5110028;28;19927;-74
2023/10/12 01:20:10;;;;;;;;;;;14.60;99.90;;;;;;5111821;28;20224;-73
2023/10/12 01:22:39;;;;;;;;;;;14.70;99.90;;;;;;5108891;28;19920;-73
2023/10/12 01:25:11;;;;;;;;;;;14.80;99.90;;;;;;5110995;28;19969;-73
2023/10/12 01:27:41;;;;;;;;;;;14.90;99.90;;;;;;5108317;28;20235;-73
2023/10/12 01:30:14;;;;;;;;;;;15.00;99.90;;;;;;5111149;28;19995;-73
2023/10/12 01:32:41;;;;;;;;;;;15.10;99.90;;;;;;5109866;28;19920;-73
2023/10/12 01:35:11;;;;;;;;;;;15.20;99.90;;;;;;5104496;28;19920;-73
2023/10/12 01:37:47;;;;;;;;;;;15.20;99.90;;;;;;5110030;28;20987;-73
2023/10/12 01:40:17;;;;;;;;;;;15.30;99.90;;;;;;5109607;28;19920;-72
2023/10/12 01:42:49;;;;;;;;;;;15.30;99.90;;;;;;5109639;28;19920;-73
2023/10/12 01:45:18;;;;;;;;;;;15.30;99.90;;;;;;5111148;28;19921;-74
2023/10/12 01:47:45;;;;;;;;;;;15.40;99.90;;;;;;5109699;28;19924;-72
2023/10/12 01:50:12;;;;;;;;;;;15.40;99.90;;;;;;5111860;28;19928;-73
2023/10/12 01:52:44;;;;;;;;;;;15.40;99.90;;;;;;5110923;28;20107;-72
2023/10/12 01:55:16;;;;;;;;;;;15.40;99.90;;;;;;5110087;28;19920;-72
2023/10/12 01:57:47;;;;;;;;;;;15.30;99.90;;;;;;5111242;28;20209;-72
2023/10/12 02:00:15;;;;;;;;;;;15.30;99.90;;;;;;5109134;28;19979;-73
2023/10/12 02:02:50;;;;;;;;;;;15.30;99.90;;;;;;5111419;28;19926;-74
2023/10/12 02:05:24;;;;;;;;;;;15.30;99.90;;;;;;5109063;28;19962;-73
2023/10/12 02:07:53;;;;;;;;;;;15.20;99.90;;;;;;5109198;28;19951;-73
2023/10/12 02:10:23;;;;;;;;;;;15.20;99.90;;;;;;5111039;28;19926;-72
2023/10/12 02:12:52;;;;;;;;;;;15.10;99.90;;;;;;5111702;28;20265;-72
2023/10/12 02:15:20;;;;;;;;;;;15.10;99.90;;;;;;5106417;28;20107;-73
2023/10/12 02:17:50;;;;;;;;;;;15.10;99.90;;;;;;5108936;28;19963;-73
2023/10/12 02:20:18;;;;;;;;;;;15.00;99.90;;;;;;5111837;28;19926;-72
2023/10/12 02:22:45;;;;;;;;;;;14.90;99.90;;;;;;5111374;28;20152;-73
2023/10/12 02:25:18;;;;;;;;;;;14.80;99.90;;;;;;5109685;28;19955;-73
2023/10/12 02:27:54;;;;;;;;;;;14.70;99.90;;;;;;5109431;28;19920;-72
2023/10/12 02:30:27;;;;;;;;;;;14.60;99.90;;;;;;5104611;28;19927;-73
2023/10/12 02:33:00;;;;;;;;;;;14.50;99.90;;;;;;5106131;28;19989;-73
2023/10/12 02:35:36;;;;;;;;;;;14.50;99.90;;;;;;5108452;28;20114;-72
2023/10/12 02:38:07;;;;;;;;;;;14.40;99.90;;;;;;5109148;28;19956;-72
2023/10/12 02:40:35;;;;;;;;;;;14.30;99.90;;;;;;5111753;28;19928;-72
2023/10/12 02:43:06;;;;;;;;;;;14.20;99.90;;;;;;5114232;28;19920;-74
2023/10/12 02:45:34;;;;;;;;;;;14.10;99.90;;;;;;5113499;28;19920;-74
2023/10/12 02:48:05;;;;;;;;;;;14.00;99.90;;;;;;5115352;28;19920;-75
2023/10/12 02:50:38;;;;;;;;;;;13.90;99.90;;;;;;5112596;28;19928;-74
2023/10/12 02:53:12;;;;;;;;;;;13.90;99.90;;;;;;5114287;28;19927;-74
2023/10/12 02:55:48;;;;;;;;;;;13.80;99.90;;;;;;5111254;28;20221;-75
2023/10/12 02:58:23;;;;;;;;;;;13.70;99.90;;;;;;5109809;28;19951;-74
2023/10/12 03:00:55;;;;;;;;;;;13.70;99.90;;;;;;5111285;28;19927;-74
2023/10/12 03:03:26;;;;;;;;;;;13.60;99.90;;;;;;5110664;28;19920;-74
2023/10/12 03:05:54;;;;;;;;;;;13.50;99.90;;;;;;5111766;28;20326;-74
2023/10/12 03:08:23;;;;;;;;;;;13.50;99.90;;;;;;5114897;28;19981;-74
2023/10/12 03:13:37;;;;;;;;;;;13.50;99.90;;;;;;5109815;28;19946;-74
2023/10/12 03:16:10;;;;;;;;;;;13.50;99.90;;;;;;5113068;28;19987;-74
2023/10/12 03:18:37;;;;;;;;;;;13.40;99.90;;;;;;5110947;28;19928;-74
2023/10/12 03:21:04;;;;;;;;;;;13.40;99.90;;;;;;5114402;28;20143;-74
2023/10/12 03:23:33;;;;;;;;;;;13.30;99.90;;;;;;5111830;28;20121;-76
2023/10/12 03:26:05;;;;;;;;;;;13.30;99.90;;;;;;5111629;28;19927;-74
2023/10/12 03:28:43;;;;;;;;;;;13.30;99.90;;;;;;5106462;28;19936;-74
2023/10/12 03:31:15;;;;;;;;;;;13.30;99.90;;;;;;5106939;28;20232;-75
2023/10/12 03:33:46;;;;;;;;;;;13.30;99.90;;;;;;5112161;28;19920;-74
2023/10/12 03:36:22;;;;;;;;;;;13.20;99.90;;;;;;5111765;28;19942;-74
2023/10/12 03:39:06;;;;;;;;;;;13.20;99.90;;;;;;5112164;28;19960;-74
2023/10/12 03:44:21;;;;;;;;;;;13.20;99.90;;;;;;5114252;28;20262;-74
2023/10/12 03:46:57;;;;;;;;;;;13.20;99.90;;;;;;5112480;28;19927;-74
2023/10/12 03:49:32;;;;;;;;;;;13.20;99.90;;;;;;5109828;28;20103;-74
2023/10/12 03:52:00;;;;;;;;;;;13.30;99.90;;;;;;5110360;28;20099;-74
2023/10/12 03:54:29;;;;;;;;;;;13.40;99.90;;;;;;5110612;28;19920;-74
2023/10/12 03:57:06;;;;;;;;;;;13.40;99.90;;;;;;5108944;28;19926;-74
2023/10/12 03:59:44;;;;;;;;;;;13.40;99.90;;;;;;5112662;28;19944;-74
2023/10/12 04:02:14;;;;;;;;;;;13.50;99.90;;;;;;5112554;28;19927;-75
2023/10/12 04:04:46;;;;;;;;;;;13.50;99.90;;;;;;5109253;28;19924;-74
2023/10/12 04:07:19;;;;;;;;;;;13.50;99.90;;;;;;5114413;28;19928;-75
2023/10/12 04:09:51;;;;;;;;;;;13.40;99.90;;;;;;5112072;28;19948;-74
2023/10/12 04:12:30;;;;;;;;;;;13.40;99.90;;;;;;5108855;28;20144;-75
2023/10/12 04:14:56;;;;;;;;;;;13.40;99.90;;;;;;5109415;28;19919;-76
2023/10/12 04:20:14;;;;;;;;;;;13.40;99.90;;;;;;5105123;28;19916;-74
2023/10/12 04:25:34;;;;;;;;;;;13.30;99.90;;;;;;5104712;28;19926;-73
2023/10/12 04:28:17;;;;;;;;;;;13.30;99.90;;;;;;5105978;28;19938;-73
2023/10/12 04:31:20;;;;;;;;;;;13.30;99.90;;;;;;5109813;28;20148;-73
2023/10/12 04:33:43;;;;;;;;;;;13.30;99.90;;;;;;5109800;28;19927;-76
2023/10/12 04:36:33;;;;;;;;;;;13.20;99.90;;;;;;5111672;28;19928;-76
2023/10/12 04:42:20;;;;;;;;;;;13.20;99.90;;;;;;5027324;28;19925;-74
2023/10/12 04:45:02;;;;;;;;;;;13.10;99.90;;;;;;5038657;28;19920;-74
2023/10/12 04:47:30;;;;;;;;;;;13.10;99.90;;;;;;5110391;28;19951;-73
2023/10/12 04:49:57;;;;;;;;;;;13.10;99.90;;;;;;5116736;28;19920;-74
2023/10/12 05:01:12;;;;;;;;;;;13.00;99.90;;;;;;5105748;28;19979;-73
2023/10/12 05:03:41;;;;;;;;;;;13.00;99.90;;;;;;5108776;28;19943;-73
2023/10/12 05:06:08;;;;;;;;;;;12.90;99.90;;;;;;5110919;28;19956;-73
2023/10/12 05:08:36;;;;;;;;;;;12.90;99.90;;;;;;5111637;28;19916;-73
2023/10/12 05:11:06;;;;;;;;;;;12.90;99.90;;;;;;5112699;28;19979;-73
2023/10/12 05:13:33;;;;;;;;;;;12.90;99.90;;;;;;5113055;28;19941;-73
2023/10/12 05:16:06;;;;;;;;;;;12.90;99.90;;;;;;5111813;28;19965;-73
2023/10/12 05:21:14;;;;;;;;;;;12.80;99.90;;;;;;5095425;28;19915;-72
2023/10/12 05:23:40;;;;;;;;;;;12.80;99.90;;;;;;5111226;28;19967;-76
2023/10/12 05:26:10;;;;;;;;;;;12.80;99.90;;;;;;5112550;28;19983;-73
2023/10/12 05:28:43;;;;;;;;;;;12.80;99.90;;;;;;5110997;28;19920;-73
2023/10/12 05:31:13;;;;;;;;;;;12.80;99.90;;;;;;5112628;28;20337;-72
2023/10/12 05:33:43;;;;;;;;;;;12.80;99.90;;;;;;5105125;28;19920;-73
2023/10/12 05:36:11;;;;;;;;;;;12.70;99.90;;;;;;5111215;28;20129;-75
2023/10/12 05:38:38;;;;;;;;;;;12.70;99.90;;;;;;5110898;28;20210;-71
2023/10/12 05:41:35;;;;;;;;;;;12.70;99.90;;;;;;5110430;28;19951;-75
2023/10/12 05:46:52;;;;;;;;;;;12.70;99.90;;;;;;5109604;28;19961;-73
2023/10/12 05:49:23;;;;;;;;;;;12.70;99.90;;;;;;5112949;28;19927;-73
2023/10/12 05:51:49;;;;;;;;;;;12.70;99.90;;;;;;5112535;28;19928;-72
2023/10/12 05:54:25;;;;;;;;;;;12.70;99.90;;;;;;5110341;28;19956;-74
2023/10/12 05:57:09;;;;;;;;;;;12.70;99.90;;;;;;5114963;28;19927;-72
2023/10/12 05:59:38;;;;;;;;;;;12.70;99.90;;;;;;5108847;28;20213;-73
2023/10/12 06:05:05;;;;;;;;;;;12.70;99.90;;;;;;5113421;28;19920;-72
2023/10/12 06:07:32;;;;;;;;;;;12.80;99.90;;;;;;5109460;28;20313;-72
2023/10/12 06:09:58;;;;;;;;;;;12.80;99.90;;;;;;5110409;28;19920;-70
2023/10/12 06:12:29;;;;;;;;;;;12.80;99.90;;;;;;5111243;28;19920;-72
2023/10/12 06:14:56;;;;;;;;;;;12.90;99.90;;;;;;5110183;28;19927;-72
2023/10/12 06:17:30;;;;;;;;;;;12.90;99.90;;;;;;5115709;28;19920;-72
2023/10/12 06:20:10;;;;;;;;;;;13.00;99.90;;;;;;5111153;28;20018;-73
2023/10/12 06:22:38;;;;;;;;;;;13.20;99.90;;;;;;5115955;28;19995;-71
2023/10/12 06:25:10;;;;;;;;;;;13.40;99.90;;;;;;5114480;28;20015;-72
2023/10/12 06:27:37;;;;;;;;;;;13.60;99.90;;;;;;5114911;28;19955;-73
2023/10/12 06:30:16;;;;;;;;;;;13.80;99.90;;;;;;5115113;28;19919;-72
2023/10/12 06:32:46;;;;;;;;;;;14.00;99.90;;;;;;5108701;28;19932;-71
2023/10/12 06:35:23;;;;;;;;;;;14.10;99.90;;;;;;5111574;28;20303;-73
2023/10/12 06:38:15;;;;;;;;;;;14.30;99.90;;;;;;5115655;28;19920;-72
2023/10/12 06:40:48;;;;;;;;;;;14.50;99.90;;;;;;5111840;28;19928;-73
2023/10/12 06:46:15;;;;;;;;;;;14.80;99.90;;;;;;5113399;28;19960;-74
2023/10/12 06:48:44;;;;;;;;;;;14.90;99.90;;;;;;5112899;28;20213;-72
2023/10/12 06:51:13;;;;;;;;;;;15.00;99.90;;;;;;5114149;27;19919;-72
2023/10/12 06:53:41;;;;;;;;;;;15.20;99.90;;;;;;5112980;28;19920;-72
2023/10/12 06:56:16;;;;;;;;;;;15.30;99.90;;;;;;5113344;28;19926;-71
2023/10/12 06:58:42;;;;;;;;;;;15.40;99.90;;;;;;5113226;28;19928;-73
2023/10/12 07:01:18;;;;;;;;;;;15.50;99.90;;;;;;5114704;28;20233;-72
2023/10/12 07:03:47;;;;;;;;;;;15.50;99.90;;;;;;5113964;28;19920;-72
2023/10/12 07:06:15;;;;;;;;;;;15.60;99.90;;;;;;5112744;28;19919;-72
2023/10/12 07:08:46;;;;;;;;;;;15.70;99.90;;;;;;5116461;28;19979;-71
2023/10/12 07:11:14;;;;;;;;;;;15.90;99.90;;;;;;5110236;28;19960;-72
2023/10/12 07:13:41;;;;;;;;;;;15.90;99.90;;;;;;5115114;28;19920;-72
2023/10/12 07:16:07;;;;;;;;;;;15.90;99.90;;;;;;5114914;28;19942;-71
2023/10/12 07:21:21;;;;;;;;;;;16.00;99.90;;;;;;5067908;28;19921;-72
2023/10/12 07:23:52;;;;;;;;;;;16.00;99.90;;;;;;5115747;28;20247;-71
2023/10/12 07:26:18;;;;;;;;;;;16.00;99.90;;;;;;5108511;28;19920;-71
2023/10/12 07:28:49;;;;;;;;;;;16.00;99.90;;;;;;5118860;28;19958;-70
2023/10/12 07:34:05;;;;;;;;;;;16.10;99.90;;;;;;5110692;28;19958;-72
2023/10/12 07:39:19;;;;;;;;;;;16.20;99.90;;;;;;5113855;28;19938;-72
2023/10/12 07:41:54;;;;;;;;;;;16.20;99.90;;;;;;5112747;28;19920;-70
2023/10/12 07:44:21;;;;;;;;;;;16.30;99.90;;;;;;5109316;28;19920;-71
2023/10/12 07:46:48;;;;;;;;;;;16.30;99.90;;;;;;5108524;28;19953;-72
2023/10/12 07:49:24;;;;;;;;;;;16.30;99.90;;;;;;5113725;28;19919;-72
2023/10/12 07:51:59;;;;;;;;;;;16.40;99.90;;;;;;5112575;28;19920;-71
2023/10/12 07:57:09;;;;;;;;;;;16.50;99.90;;;;;;5107774;28;20314;-72
2023/10/12 07:59:38;;;;;;;;;;;16.60;99.90;;;;;;5112314;28;19920;-71
2023/10/12 08:02:08;;;;;;;;;;;16.70;99.90;;;;;;5113703;28;19924;-71
2023/10/12 08:04:34;;;;;;;;;;;16.80;99.90;;;;;;5113501;28;20007;-71
2023/10/12 08:07:06;;;;;;;;;;;16.70;99.90;;;;;;5114590;28;20218;-71
2023/10/12 08:09:47;;;;;;;;;;;16.80;99.90;;;;;;5112261;28;20121;-72
2023/10/12 08:12:24;;;;;;;;;;;16.80;99.90;;;;;;5112132;28;20423;-72
2023/10/12 08:14:53;;;;;;;;;;;16.90;99.90;;;;;;5114288;28;19969;-72
2023/10/12 08:17:29;;;;;;;;;;;16.90;99.90;;;;;;5112140;28;19920;-72
2023/10/12 08:19:57;;;;;;;;;;;17.00;99.90;;;;;;5109538;28;19987;-71
2023/10/12 08:22:26;;;;;;;;;;;17.00;99.90;;;;;;5112214;28;19916;-71
2023/10/12 08:24:58;;;;;;;;;;;17.10;99.90;;;;;;5111388;28;19926;-72
2023/10/12 08:27:27;;;;;;;;;;;17.10;99.90;;;;;;5109386;28;19983;-71
2023/10/12 08:30:19;;;;;;;;;;;17.20;99.90;;;;;;5111671;28;19928;-73
2023/10/12 08:32:55;;;;;;;;;;;17.30;99.90;;;;;;5112125;28;19920;-72
2023/10/12 08:35:38;;;;;;;;;;;17.40;99.90;;;;;;5108074;28;19979;-72
2023/10/12 08:38:11;;;;;;;;;;;17.50;99.90;;;;;;5110786;28;19927;-72
2023/10/12 08:40:53;;;;;;;;;;;17.50;99.90;;;;;;5113630;28;20004;-72
2023/10/12 08:43:34;;;;;;;;;;;17.50;99.90;;;;;;5108388;28;19920;-72
2023/10/12 08:46:04;;;;;;;;;;;17.60;99.90;;;;;;5113594;28;19983;-72
2023/10/12 08:48:35;;;;;;;;;;;17.60;99.90;;;;;;5111993;28;19982;-71
2023/10/12 08:51:09;;;;;;;;;;;17.60;99.90;;;;;;5107951;28;20114;-72
2023/10/12 08:53:39;;;;;;;;;;;17.70;99.90;;;;;;5113464;28;19920;-72
2023/10/12 08:56:08;;;;;;;;;;;17.70;99.90;;;;;;5112560;28;19920;-71
2023/10/12 08:58:42;;;;;;;;;;;17.80;99.90;;;;;;5109482;28;19981;-71
2023/10/12 09:01:10;;;;;;;;;;;17.90;99.90;;;;;;5109409;28;19920;-72
2023/10/12 09:03:44;;;;;;;;;;;17.90;99.90;;;;;;5108564;28;19920;-71
2023/10/12 09:06:29;;;;;;;;;;;17.90;99.90;;;;;;5106931;28;19923;-71
2023/10/12 09:08:57;;;;;;;;;;;17.90;99.90;;;;;;5111584;28;19962;-72
2023/10/12 09:11:33;;;;;;;;;;;18.00;99.90;;;;;;5115280;28;19920;-72
2023/10/12 09:14:00;;;;;;;;;;;18.10;99.90;;;;;;5109192;28;20210;-71
2023/10/12 09:16:28;;;;;;;;;;;18.20;99.90;;;;;;5113114;28;19926;-72
2023/10/12 09:18:59;;;;;;;;;;;18.30;99.90;;;;;;5108088;28;19982;-71
2023/10/12 09:21:38;;;;;;;;;;;18.30;99.90;;;;;;5113681;28;20117;-71
2023/10/12 09:24:15;;;;;;;;;;;18.40;99.90;;;;;;5110343;28;19983;-71
2023/10/12 09:26:49;;;;;;;;;;;18.50;99.90;;;;;;5112620;28;19920;-72
2023/10/12 09:29:23;;;;;;;;;;;18.60;99.90;;;;;;5110940;28;19920;-71
2023/10/12 09:35:02;;;;;;;;;;;18.70;99.90;;;;;;5102465;28;19938;-71
2023/10/12 09:37:33;;;;;;;;;;;18.80;99.90;;;;;;5107602;28;19924;-70
2023/10/12 09:40:00;;;;;;;;;;;18.80;99.90;;;;;;5107182;28;20170;-71
2023/10/12 09:42:32;;;;;;;;;;;18.80;99.90;;;;;;5110860;28;19927;-74
2023/10/12 09:45:04;;;;;;;;;;;18.90;99.90;;;;;;5108238;28;19995;-72
2023/10/12 09:47:44;;;;;;;;;;;18.80;99.90;;;;;;5112861;28;19947;-72
2023/10/12 09:50:14;;;;;;;;;;;18.90;99.90;;;;;;5111460;28;19920;-72
2023/10/12 09:52:46;;;;;;;;;;;18.90;99.90;;;;;;5103219;28;20214;-72
2023/10/12 09:55:15;;;;;;;;;;;19.00;99.90;;;;;;5112789;28;19920;-71
2023/10/12 09:57:49;;;;;;;;;;;19.00;99.90;;;;;;5107360;28;19920;-72
2023/10/12 10:00:27;;;;;;;;;;;19.00;99.90;;;;;;5114160;28;19986;-73
2023/10/12 10:02:58;;;;;;;;;;;19.00;99.90;;;;;;5112277;28;19924;-73
2023/10/12 10:05:39;;;;;;;;;;;19.10;99.90;;;;;;5112714;28;19919;-72
2023/10/12 10:08:07;;;;;;;;;;;19.10;99.90;;;;;;5112900;28;19920;-71
2023/10/12 10:10:34;;;;;;;;;;;19.10;99.90;;;;;;5110725;28;20178;-71
2023/10/12 10:13:08;;;;;;;;;;;19.10;99.90;;;;;;5111599;28;19924;-74
2023/10/12 10:15:55;;;;;;;;;;;19.10;99.90;;;;;;5110845;28;19920;-73
2023/10/12 10:18:25;;;;;;;;;;;19.20;99.90;;;;;;5108620;28;19923;-71
2023/10/12 10:20:56;;;;;;;;;;;19.20;99.90;;;;;;5114905;28;19920;-72
2023/10/12 10:23:23;;;;;;;;;;;19.20;99.90;;;;;;5107427;28;20121;-72
2023/10/12 10:25:56;;;;;;;;;;;19.30;99.90;;;;;;5110040;28;19920;-72
2023/10/12 10:28:27;;;;;;;;;;;19.30;99.90;;;;;;5107734;28;19919;-73
2023/10/12 10:30:56;;;;;;;;;;;19.40;99.90;;;;;;5113938;28;20241;-75
2023/10/12 10:33:48;;;;;;;;;;;19.40;99.90;;;;;;5111165;28;20213;-73
2023/10/12 10:36:25;;;;;;;;;;;19.40;99.90;;;;;;5111249;28;19919;-71
2023/10/12 10:38:54;;;;;;;;;;;19.40;99.90;;;;;;5114654;28;19920;-71
2023/10/12 10:41:37;;;;;;;;;;;19.50;99.90;;;;;;5109832;28;19951;-71
2023/10/12 10:44:15;;;;;;;;;;;19.50;99.90;;;;;;5111046;28;19942;-76
2023/10/12 10:47:00;;;;;;;;;;;19.50;99.90;;;;;;5111496;28;19920;-74
2023/10/12 10:49:30;;;;;;;;;;;19.50;99.90;;;;;;5111072;28;20104;-72
2023/10/12 10:52:20;;;;;;;;;;;19.60;99.90;;;;;;5109639;28;19927;-74
2023/10/12 10:54:56;;;;;;;;;;;19.60;99.90;;;;;;5106531;28;19928;-73
2023/10/12 10:57:44;;;;;;;;;;;19.70;99.90;;;;;;5104462;28;19928;-73
2023/10/12 11:00:16;;;;;;;;;;;19.80;99.90;;;;;;5111056;28;19965;-73
2023/10/12 11:02:43;;;;;;;;;;;19.90;99.90;;;;;;5115013;28;20152;-71
2023/10/12 11:05:19;;;;;;;;;;;20.00;99.90;;;;;;5114968;28;19920;-72
2023/10/12 11:07:50;;;;;;;;;;;20.00;99.90;;;;;;5113317;28;19927;-74
2023/10/12 11:10:31;;;;;;;;;;;20.00;99.90;;;;;;5114781;28;19928;-74
2023/10/12 11:13:00;;;;;;;;;;;20.10;99.90;;;;;;5111055;28;19988;-74
2023/10/12 11:15:28;;;;;;;;;;;20.10;99.90;;;;;;5112963;28;19916;-72
2023/10/12 11:17:57;;;;;;;;;;;20.10;99.90;;;;;;5110377;28;19942;-72
2023/10/12 11:20:35;;;;;;;;;;;20.10;99.90;;;;;;5116746;28;19920;-72
2023/10/12 11:23:06;;;;;;;;;;;20.10;99.90;;;;;;5112607;28;20174;-73
2023/10/12 11:25:39;;;;;;;;;;;20.10;99.90;;;;;;5114927;28;19926;-72
2023/10/12 11:28:20;;;;;;;;;;;20.10;99.90;;;;;;5115101;28;19945;-72
2023/10/12 11:30:51;;;;;;;;;;;20.10;99.90;;;;;;5117127;28;19962;-72
2023/10/12 11:33:29;;;;;;;;;;;20.10;99.90;;;;;;5113732;28;19935;-76
2023/10/12 11:36:00;;;;;;;;;;;20.10;99.90;;;;;;5113578;28;20150;-72
2023/10/12 11:38:27;;;;;;;;;;;20.00;99.90;;;;;;5110351;28;19928;-72
2023/10/12 11:40:55;;;;;;;;;;;20.10;99.90;;;;;;5110424;28;19962;-72
2023/10/12 11:43:25;;;;;;;;;;;20.00;99.90;;;;;;5109368;28;19920;-73
2023/10/12 11:46:01;;;;;;;;;;;20.10;99.90;;;;;;5116282;28;19985;-72
2023/10/12 11:48:28;;;;;;;;;;;20.10;99.90;;;;;;5109987;28;19927;-72
2023/10/12 11:50:55;;;;;;;;;;;20.10;99.90;;;;;;5109878;28;19920;-74
2023/10/12 11:53:24;;;;;;;;;;;20.00;99.90;;;;;;5116339;28;19920;-73
2023/10/12 11:56:01;;;;;;;;;;;20.10;99.90;;;;;;5115258;28;19927;-73
2023/10/12 11:58:28;;;;;;;;;;;20.00;99.90;;;;;;5106612;28;19965;-72
2023/10/12 12:01:00;;;;;;;;;;;20.00;99.90;;;;;;5108005;28;19958;-72
2023/10/12 12:03:45;;;;;;;;;;;19.90;99.90;;;;;;5115923;28;19951;-73
2023/10/12 12:09:07;;;;;;;;;;;19.90;99.90;;;;;;5107126;28;19942;-73
2023/10/12 12:11:47;;;;;;;;;;;20.00;99.90;;;;;;5084909;28;19927;-73
2023/10/12 12:14:47;;;;;;;;;;;19.90;99.90;;;;;;5116001;28;19959;-72
2023/10/12 12:22:49;;;;;;;;;;;19.80;99.90;;;;;;5113715;28;19946;-73
2023/10/12 12:25:21;;;;;;;;;;;19.80;99.90;;;;;;5107930;28;19951;-73
2023/10/12 12:27:55;;;;;;;;;;;19.80;99.90;;;;;;5107683;28;19920;-71
2023/10/12 12:30:30;;;;;;;;;;;19.70;99.90;;;;;;5101541;28;19932;-72
2023/10/12 12:33:00;;;;;;;;;;;19.70;99.90;;;;;;5110357;28;19920;-71
2023/10/12 12:35:28;;;;;;;;;;;19.70;99.90;;;;;;5114937;28;19926;-68
2023/10/12 12:38:00;;;;;;;;;;;19.70;99.90;;;;;;5109441;28;19926;-71
2023/10/12 12:40:30;;;;;;;;;;;19.70;99.90;;;;;;5115108;28;19920;-71
2023/10/12 12:42:57;;;;;;;;;;;19.70;99.90;;;;;;5109867;28;19920;-71
2023/10/12 12:45:30;;;;;;;;;;;19.70;99.90;;;;;;5110707;28;19985;-72
2023/10/12 12:47:58;;;;;;;;;;;19.60;99.90;;;;;;5109674;28;20113;-72
2023/10/12 12:50:28;;;;;;;;;;;19.70;99.90;;;;;;5115505;28;19974;-74
2023/10/12 12:52:54;;;;;;;;;;;19.60;99.90;;;;;;5109766;28;19965;-72
2023/10/12 12:58:15;;;;;;;;;;;19.60;99.90;;;;;;5114411;28;19973;-73
2023/10/12 13:06:41;;;;;;;;;;;19.60;99.90;;;;;;5111902;28;19964;-72
2023/10/12 13:09:26;;;;;;;;;;;19.50;99.90;;;;;;5109060;28;19956;-72
2023/10/12 13:11:52;;;;;;;;;;;19.50;99.90;;;;;;5108196;28;19961;-72
2023/10/12 13:14:19;;;;;;;;;;;19.40;99.90;;;;;;5104137;28;19951;-72
2023/10/12 13:16:45;;;;;;;;;;;19.40;99.90;;;;;;5108594;28;20201;-72
2023/10/12 13:19:17;;;;;;;;;;;19.40;99.90;;;;;;5111771;28;19956;-73
2023/10/12 13:21:45;;;;;;;;;;;19.30;99.90;;;;;;5111773;28;19928;-73
2023/10/12 13:24:13;;;;;;;;;;;19.30;99.90;;;;;;5118356;28;19920;-72
2023/10/12 13:26:43;;;;;;;;;;;19.20;99.90;;;;;;5115693;28;19942;-72
2023/10/12 13:32:12;;;;;;;;;;;19.20;99.90;;;;;;5061685;28;19947;-72
2023/10/12 13:34:58;;;;;;;;;;;19.20;99.90;;;;;;5112347;28;19928;-71
2023/10/12 13:37:30;;;;;;;;;;;19.10;99.90;;;;;;5116284;28;19920;-73
2023/10/12 13:39:57;;;;;;;;;;;19.10;99.90;;;;;;5112628;28;20258;-72
2023/10/12 13:42:23;;;;;;;;;;;19.00;99.90;;;;;;5110951;28;19955;-72
2023/10/12 13:44:50;;;;;;;;;;;19.10;99.90;;;;;;5113378;28;19920;-72
2023/10/12 13:47:17;;;;;;;;;;;19.10;99.90;;;;;;5116859;28;19969;-72
2023/10/12 13:49:53;;;;;;;;;;;19.10;99.90;;;;;;5113090;28;20209;-73
2023/10/12 13:52:20;;;;;;;;;;;19.10;99.90;;;;;;5106074;28;20126;-72
2023/10/12 13:58:05;;;;;;;;;;;19.00;99.90;;;;;;5081956;28;19959;-72
2023/10/12 14:00:34;;;;;;;;;;;19.00;99.90;;;;;;5110708;28;19920;-72
2023/10/12 14:03:10;;;;;;;;;;;19.00;99.90;;;;;;5114976;28;19920;-72
2023/10/12 14:05:40;;;;;;;;;;;19.00;99.90;;;;;;5115477;28;19965;-71
2023/10/12 14:08:08;;;;;;;;;;;19.00;99.90;;;;;;5113814;28;19958;-72
2023/10/12 14:10:38;;;;;;;;;;;19.00;99.90;;;;;;5118822;28;19920;-72
2023/10/12 14:13:07;;;;;;;;;;;19.00;99.90;;;;;;5113307;28;19924;-72
2023/10/12 14:18:17;;;;;;;;;;;19.00;99.90;;;;;;5107984;28;20043;-72
2023/10/12 14:23:38;;;;;;;;;;;19.00;99.90;;;;;;5107556;28;19920;-75
2023/10/12 14:26:10;;;;;;;;;;;19.00;99.90;;;;;;5109877;28;19927;-74
2023/10/12 14:28:41;;;;;;;;;;;18.90;99.90;;;;;;5110235;28;19958;-73
2023/10/12 14:31:13;;;;;;;;;;;18.90;99.90;;;;;;5108103;28;19920;-75
2023/10/12 14:34:06;;;;;;;;;;;18.80;99.90;;;;;;5103182;28;19920;-72
2023/10/12 14:36:46;;;;;;;;;;;18.80;99.90;;;;;;5105322;28;19920;-73
2023/10/12 14:39:29;;;;;;;;;;;18.80;99.90;;;;;;5115147;28;19927;-73
2023/10/12 14:41:56;;;;;;;;;;;18.80;99.90;;;;;;5112370;28;19954;-73
2023/10/12 14:44:25;;;;;;;;;;;18.70;99.90;;;;;;5119988;28;20019;-71
2023/10/12 14:46:54;;;;;;;;;;;18.70;99.90;;;;;;5116879;28;19920;-72
2023/10/12 14:49:20;;;;;;;;;;;18.70;99.90;;;;;;5108811;28;19983;-73
2023/10/12 14:51:47;;;;;;;;;;;18.70;99.90;;;;;;5115912;28;20004;-72
2023/10/12 14:54:14;;;;;;;;;;;18.60;99.90;;;;;;5113861;28;19935;-73
2023/10/12 14:56:42;;;;;;;;;;;18.70;99.90;;;;;;5112347;28;19928;-70
2023/10/12 14:59:09;;;;;;;;;;;18.60;99.90;;;;;;5118304;28;19928;-72
2023/10/12 15:01:38;;;;;;;;;;;18.60;99.90;;;;;;5118591;28;19926;-71
2023/10/12 15:04:07;;;;;;;;;;;18.60;99.90;;;;;;5117325;28;19993;-69
2023/10/12 15:06:33;;;;;;;;;;;18.60;99.90;;;;;;5108690;28;19977;-72
2023/10/12 15:09:00;;;;;;;;;;;18.60;99.90;;;;;;5112960;28;19958;-72
2023/10/12 15:11:27;;;;;;;;;;;18.60;99.90;;;;;;5112565;28;19920;-70
2023/10/12 15:13:54;;;;;;;;;;;18.60;99.90;;;;;;5115774;28;19927;-71
2023/10/12 15:16:21;;;;;;;;;;;18.60;99.90;;;;;;5112860;28;19942;-73
2023/10/12 15:18:49;;;;;;;;;;;18.50;99.90;;;;;;5116134;28;20260;-72
2023/10/12 15:21:18;;;;;;;;;;;18.50;99.90;;;;;;5118488;28;19962;-72
2023/10/12 15:23:44;;;;;;;;;;;18.50;99.90;;;;;;5117791;28;19919;-72
2023/10/12 15:26:13;;;;;;;;;;;18.40;99.90;;;;;;5119103;28;19919;-72
2023/10/12 15:28:39;;;;;;;;;;;18.40;99.90;;;;;;5112662;28;19926;-71
2023/10/12 15:31:08;;;;;;;;;;;18.40;99.90;;;;;;5117801;28;19987;-73
2023/10/12 15:33:37;;;;;;;;;;;18.30;99.90;;;;;;5118776;28;19923;-72
2023/10/12 15:36:07;;;;;;;;;;;18.30;99.90;;;;;;5116333;28;19987;-72
2023/10/12 15:38:34;;;;;;;;;;;18.30;99.90;;;;;;5115484;28;19931;-73
2023/10/12 15:41:01;;;;;;;;;;;18.30;99.90;;;;;;5108266;28;19931;-72
2023/10/12 15:43:28;;;;;;;;;;;18.20;99.90;;;;;;5113621;28;19958;-72
2023/10/12 15:45:56;;;;;;;;;;;18.30;99.90;;;;;;5112121;28;19927;-72
2023/10/12 15:48:26;;;;;;;;;;;18.20;99.90;;;;;;5111816;28;20027;-74
2023/10/12 15:50:53;;;;;;;;;;;18.20;99.90;;;;;;5103930;28;19920;-72
2023/10/12 15:53:23;;;;;;;;;;;18.20;99.90;;;;;;5109813;28;20357;-73
2023/10/12 15:55:49;;;;;;;;;;;18.10;99.90;;;;;;5109197;28;20232;-73
2023/10/12 15:58:16;;;;;;;;;;;18.10;99.90;;;;;;5112218;28;19926;-73
2023/10/12 16:00:42;;;;;;;;;;;18.10;99.90;;;;;;5111989;28;19920;-73